sensor_id;sensor_type;location;lat;lon;timestamp;temperature;humidity
27803;DHT22;15182;48.174;11.562;2023-06-22T00:01:57;27.90;77.10
27803;DHT22;15182;48.174;11.562;2023-06-22T00:04:25;27.90;77.00
27803;DHT22;15182;48.174;11.562;2023-06-22T00:06:54;27.80;77.00
27803;DHT22;15182;48.174;11.562;2023-06-22T00:09:21;27.80;77.00
27803;DHT22;15182;48.174;11.562;2023-06-22T00:11:49;27.80;77.00
27803;DHT22;15182;48.174;11.562;2023-06-22T00:14:17;27.80;77.00
27803;DHT22;15182;48.174;11.562;2023-06-22T00:16:45;27.70;77.00
27803;DHT22;15182;48.174;11.562;2023-06-22T00:19:15;27.70;77.00
27803;DHT22;15182;48.174;11.562;2023-06-22T00:21:42;27.60;77.10
27803;DHT22;15182;48.174;11.562;2023-06-22T00:24:14;27.60;77.30
27803;DHT22;15182;48.174;11.562;2023-06-22T00:26:42;27.60;77.40
27803;DHT22;15182;48.174;11.562;2023-06-22T00:29:10;27.60;77.30
27803;DHT22;15182;48.174;11.562;2023-06-22T00:31:38;27.60;77.30
27803;DHT22;15182;48.174;11.562;2023-06-22T00:34:05;27.50;77.30
27803;DHT22;15182;48.174;11.562;2023-06-22T00:36:35;27.50;77.30
27803;DHT22;15182;48.174;11.562;2023-06-22T00:39:03;27.50;77.40
27803;DHT22;15182;48.174;11.562;2023-06-22T00:41:33;27.50;77.40
27803;DHT22;15182;48.174;11.562;2023-06-22T00:44:01;27.40;77.50
27803;DHT22;15182;48.174;11.562;2023-06-22T00:46:31;27.40;77.60
27803;DHT22;15182;48.174;11.562;2023-06-22T00:48:59;27.40;77.60
27803;DHT22;15182;48.174;11.562;2023-06-22T00:51:28;27.40;77.70
27803;DHT22;15182;48.174;11.562;2023-06-22T00:53:56;27.40;77.80
27803;DHT22;15182;48.174;11.562;2023-06-22T00:56:24;27.30;77.80
27803;DHT22;15182;48.174;11.562;2023-06-22T00:58:53;27.30;78.00
27803;DHT22;15182;48.174;11.562;2023-06-22T01:01:23;27.30;78.00
27803;DHT22;15182;48.174;11.562;2023-06-22T01:03:51;27.30;78.10
27803;DHT22;15182;48.174;11.562;2023-06-22T01:06:28;27.30;78.20
27803;DHT22;15182;48.174;11.562;2023-06-22T01:09:11;27.20;78.30
27803;DHT22;15182;48.174;11.562;2023-06-22T01:11:45;27.20;78.40
27803;DHT22;15182;48.174;11.562;2023-06-22T01:14:23;27.20;78.30
27803;DHT22;15182;48.174;11.562;2023-06-22T01:16:57;27.20;78.40
27803;DHT22;15182;48.174;11.562;2023-06-22T01:19:37;27.20;78.40
27803;DHT22;15182;48.174;11.562;2023-06-22T01:22:10;27.20;78.50
27803;DHT22;15182;48.174;11.562;2023-06-22T01:24:48;27.10;78.40
27803;DHT22;15182;48.174;11.562;2023-06-22T01:27:32;27.10;78.40
27803;DHT22;15182;48.174;11.562;2023-06-22T01:30:10;27.10;78.50
27803;DHT22;15182;48.174;11.562;2023-06-22T01:32:40;27.10;78.40
27803;DHT22;15182;48.174;11.562;2023-06-22T01:35:09;27.10;78.40
27803;DHT22;15182;48.174;11.562;2023-06-22T01:37:38;27.00;78.40
27803;DHT22;15182;48.174;11.562;2023-06-22T01:40:08;27.00;78.40
27803;DHT22;15182;48.174;11.562;2023-06-22T01:42:36;27.00;78.50
27803;DHT22;15182;48.174;11.562;2023-06-22T01:45:08;27.00;78.60
27803;DHT22;15182;48.174;11.562;2023-06-22T01:47:39;27.00;78.70
27803;DHT22;15182;48.174;11.562;2023-06-22T01:50:07;26.90;78.60
27803;DHT22;15182;48.174;11.562;2023-06-22T01:52:36;26.90;78.70
27803;DHT22;15182;48.174;11.562;2023-06-22T01:55:04;26.90;78.80
27803;DHT22;15182;48.174;11.562;2023-06-22T01:57:34;26.90;78.80
27803;DHT22;15182;48.174;11.562;2023-06-22T02:00:05;26.80;78.80
27803;DHT22;15182;48.174;11.562;2023-06-22T02:02:44;26.80;78.90
27803;DHT22;15182;48.174;11.562;2023-06-22T02:05:17;26.80;79.00
27803;DHT22;15182;48.174;11.562;2023-06-22T02:07:55;26.80;79.00
27803;DHT22;15182;48.174;11.562;2023-06-22T02:10:30;26.80;79.20
27803;DHT22;15182;48.174;11.562;2023-06-22T02:12:59;26.80;79.10
27803;DHT22;15182;48.174;11.562;2023-06-22T02:15:28;26.70;79.10
27803;DHT22;15182;48.174;11.562;2023-06-22T02:17:57;26.70;79.10
27803;DHT22;15182;48.174;11.562;2023-06-22T02:20:25;26.70;80.10
27803;DHT22;15182;48.174;11.562;2023-06-22T02:22:53;26.70;79.30
27803;DHT22;15182;48.174;11.562;2023-06-22T02:25:21;26.60;79.30
27803;DHT22;15182;48.174;11.562;2023-06-22T02:27:49;26.60;79.30
27803;DHT22;15182;48.174;11.562;2023-06-22T02:30:17;26.60;79.40
27803;DHT22;15182;48.174;11.562;2023-06-22T02:32:45;26.60;79.50
27803;DHT22;15182;48.174;11.562;2023-06-22T02:35:17;26.60;79.60
27803;DHT22;15182;48.174;11.562;2023-06-22T02:37:45;26.60;79.70
27803;DHT22;15182;48.174;11.562;2023-06-22T02:40:13;26.60;79.70
27803;DHT22;15182;48.174;11.562;2023-06-22T02:42:41;26.50;79.70
27803;DHT22;15182;48.174;11.562;2023-06-22T02:45:09;26.50;79.70
27803;DHT22;15182;48.174;11.562;2023-06-22T02:47:37;26.50;79.80
27803;DHT22;15182;48.174;11.562;2023-06-22T02:50:06;26.50;79.90
27803;DHT22;15182;48.174;11.562;2023-06-22T02:52:36;26.50;80.00
27803;DHT22;15182;48.174;11.562;2023-06-22T02:55:05;26.40;80.10
27803;DHT22;15182;48.174;11.562;2023-06-22T02:57:34;26.40;80.10
27803;DHT22;15182;48.174;11.562;2023-06-22T03:00:05;26.40;80.20
27803;DHT22;15182;48.174;11.562;2023-06-22T03:02:43;26.40;80.40
27803;DHT22;15182;48.174;11.562;2023-06-22T03:05:11;26.40;80.40
27803;DHT22;15182;48.174;11.562;2023-06-22T03:07:42;26.40;80.50
27803;DHT22;15182;48.174;11.562;2023-06-22T03:10:11;26.40;80.60
27803;DHT22;15182;48.174;11.562;2023-06-22T03:12:40;26.30;80.60
27803;DHT22;15182;48.174;11.562;2023-06-22T03:15:10;26.30;80.60
27803;DHT22;15182;48.174;11.562;2023-06-22T03:17:40;26.30;80.60
27803;DHT22;15182;48.174;11.562;2023-06-22T03:20:09;26.30;80.70
27803;DHT22;15182;48.174;11.562;2023-06-22T03:22:39;26.30;80.90
27803;DHT22;15182;48.174;11.562;2023-06-22T03:25:09;26.20;81.70
27803;DHT22;15182;48.174;11.562;2023-06-22T03:27:42;26.20;81.00
27803;DHT22;15182;48.174;11.562;2023-06-22T03:30:11;26.20;81.00
27803;DHT22;15182;48.174;11.562;2023-06-22T03:32:40;26.20;81.10
27803;DHT22;15182;48.174;11.562;2023-06-22T03:35:09;26.10;81.00
27803;DHT22;15182;48.174;11.562;2023-06-22T03:37:39;26.10;81.20
27803;DHT22;15182;48.174;11.562;2023-06-22T03:40:10;26.10;81.40
27803;DHT22;15182;48.174;11.562;2023-06-22T03:42:38;26.00;81.50
27803;DHT22;15182;48.174;11.562;2023-06-22T03:45:07;26.00;81.50
27803;DHT22;15182;48.174;11.562;2023-06-22T03:47:35;26.00;81.60
27803;DHT22;15182;48.174;11.562;2023-06-22T03:50:04;26.00;81.80
27803;DHT22;15182;48.174;11.562;2023-06-22T03:52:32;26.00;81.90
27803;DHT22;15182;48.174;11.562;2023-06-22T03:55:00;26.00;82.00
27803;DHT22;15182;48.174;11.562;2023-06-22T03:57:29;25.90;82.00
27803;DHT22;15182;48.174;11.562;2023-06-22T03:59:57;25.90;82.30
27803;DHT22;15182;48.174;11.562;2023-06-22T04:02:25;25.90;82.30
27803;DHT22;15182;48.174;11.562;2023-06-22T04:04:53;25.80;82.30
27803;DHT22;15182;48.174;11.562;2023-06-22T04:07:21;25.80;82.40
27803;DHT22;15182;48.174;11.562;2023-06-22T04:09:49;25.80;82.60
27803;DHT22;15182;48.174;11.562;2023-06-22T04:12:16;25.70;82.60
27803;DHT22;15182;48.174;11.562;2023-06-22T04:14:45;25.70;82.60
27803;DHT22;15182;48.174;11.562;2023-06-22T04:17:13;25.70;82.90
27803;DHT22;15182;48.174;11.562;2023-06-22T04:19:41;25.70;83.00
27803;DHT22;15182;48.174;11.562;2023-06-22T04:22:09;25.70;83.00
27803;DHT22;15182;48.174;11.562;2023-06-22T04:24:38;25.70;83.20
27803;DHT22;15182;48.174;11.562;2023-06-22T04:27:06;25.70;83.40
27803;DHT22;15182;48.174;11.562;2023-06-22T04:29:33;25.70;83.40
27803;DHT22;15182;48.174;11.562;2023-06-22T04:32:03;25.70;83.70
27803;DHT22;15182;48.174;11.562;2023-06-22T04:34:32;25.70;83.80
27803;DHT22;15182;48.174;11.562;2023-06-22T04:37:00;25.70;83.70
27803;DHT22;15182;48.174;11.562;2023-06-22T04:39:28;25.70;83.90
27803;DHT22;15182;48.174;11.562;2023-06-22T04:41:55;25.70;83.90
27803;DHT22;15182;48.174;11.562;2023-06-22T04:44:26;25.70;84.00
27803;DHT22;15182;48.174;11.562;2023-06-22T04:46:56;25.70;84.00
27803;DHT22;15182;48.174;11.562;2023-06-22T04:49:28;25.70;84.10
27803;DHT22;15182;48.174;11.562;2023-06-22T04:51:59;25.70;84.20
27803;DHT22;15182;48.174;11.562;2023-06-22T04:54:27;25.80;84.20
27803;DHT22;15182;48.174;11.562;2023-06-22T04:56:55;25.80;84.20
27803;DHT22;15182;48.174;11.562;2023-06-22T04:59:23;25.80;84.50
27803;DHT22;15182;48.174;11.562;2023-06-22T05:01:54;25.80;84.30
27803;DHT22;15182;48.174;11.562;2023-06-22T05:04:22;25.80;84.30
27803;DHT22;15182;48.174;11.562;2023-06-22T05:06:52;25.90;84.50
27803;DHT22;15182;48.174;11.562;2023-06-22T05:09:20;25.90;84.50
27803;DHT22;15182;48.174;11.562;2023-06-22T05:11:48;25.90;84.40
27803;DHT22;15182;48.174;11.562;2023-06-22T05:14:16;25.90;85.20
27803;DHT22;15182;48.174;11.562;2023-06-22T05:16:45;26.00;84.30
27803;DHT22;15182;48.174;11.562;2023-06-22T05:19:13;26.00;84.40
27803;DHT22;15182;48.174;11.562;2023-06-22T05:21:40;26.00;84.20
27803;DHT22;15182;48.174;11.562;2023-06-22T05:24:10;26.00;84.20
27803;DHT22;15182;48.174;11.562;2023-06-22T05:26:37;26.10;84.30
27803;DHT22;15182;48.174;11.562;2023-06-22T05:29:05;26.10;84.10
27803;DHT22;15182;48.174;11.562;2023-06-22T05:31:34;26.10;84.90
27803;DHT22;15182;48.174;11.562;2023-06-22T05:34:01;26.20;84.20
27803;DHT22;15182;48.174;11.562;2023-06-22T05:36:29;26.20;84.30
27803;DHT22;15182;48.174;11.562;2023-06-22T05:38:57;26.20;84.20
27803;DHT22;15182;48.174;11.562;2023-06-22T05:41:26;26.20;84.30
27803;DHT22;15182;48.174;11.562;2023-06-22T05:43:54;26.30;84.50
27803;DHT22;15182;48.174;11.562;2023-06-22T05:46:23;26.30;84.40
27803;DHT22;15182;48.174;11.562;2023-06-22T05:48:50;26.30;84.40
27803;DHT22;15182;48.174;11.562;2023-06-22T05:51:18;26.30;84.40
27803;DHT22;15182;48.174;11.562;2023-06-22T05:53:46;26.40;84.30
27803;DHT22;15182;48.174;11.562;2023-06-22T05:56:16;26.40;84.30
27803;DHT22;15182;48.174;11.562;2023-06-22T05:58:45;26.40;84.30
27803;DHT22;15182;48.174;11.562;2023-06-22T06:01:13;26.50;84.50
27803;DHT22;15182;48.174;11.562;2023-06-22T06:03:42;26.50;84.30
27803;DHT22;15182;48.174;11.562;2023-06-22T06:06:10;26.50;84.40
27803;DHT22;15182;48.174;11.562;2023-06-22T06:08:38;26.60;85.20
27803;DHT22;15182;48.174;11.562;2023-06-22T06:11:06;26.60;84.10
27803;DHT22;15182;48.174;11.562;2023-06-22T06:13:34;26.60;84.30
27803;DHT22;15182;48.174;11.562;2023-06-22T06:16:04;26.70;84.50
27803;DHT22;15182;48.174;11.562;2023-06-22T06:18:31;26.70;84.30
27803;DHT22;15182;48.174;11.562;2023-06-22T06:20:59;26.80;84.20
27803;DHT22;15182;48.174;11.562;2023-06-22T06:23:27;26.80;84.10
27803;DHT22;15182;48.174;11.562;2023-06-22T06:25:55;26.90;84.10
27803;DHT22;15182;48.174;11.562;2023-06-22T06:28:24;26.90;84.20
27803;DHT22;15182;48.174;11.562;2023-06-22T06:30:52;27.00;84.30
27803;DHT22;15182;48.174;11.562;2023-06-22T06:33:21;27.10;84.20
27803;DHT22;15182;48.174;11.562;2023-06-22T06:35:48;27.10;85.30
27803;DHT22;15182;48.174;11.562;2023-06-22T06:38:16;27.20;84.20
27803;DHT22;15182;48.174;11.562;2023-06-22T06:40:44;27.20;84.10
27803;DHT22;15182;48.174;11.562;2023-06-22T06:43:13;27.30;84.00
27803;DHT22;15182;48.174;11.562;2023-06-22T06:45:41;27.40;84.00
27803;DHT22;15182;48.174;11.562;2023-06-22T06:48:09;27.50;84.00
27803;DHT22;15182;48.174;11.562;2023-06-22T06:50:38;27.50;83.70
27803;DHT22;15182;48.174;11.562;2023-06-22T06:53:06;27.60;83.80
27803;DHT22;15182;48.174;11.562;2023-06-22T06:55:34;27.70;83.60
27803;DHT22;15182;48.174;11.562;2023-06-22T06:58:02;27.80;83.50
27803;DHT22;15182;48.174;11.562;2023-06-22T07:00:32;27.90;83.20
27803;DHT22;15182;48.174;11.562;2023-06-22T07:02:59;28.00;83.00
27803;DHT22;15182;48.174;11.562;2023-06-22T07:05:27;28.00;83.00
27803;DHT22;15182;48.174;11.562;2023-06-22T07:07:56;28.10;83.80
27803;DHT22;15182;48.174;11.562;2023-06-22T07:10:24;28.20;82.70
27803;DHT22;15182;48.174;11.562;2023-06-22T07:12:52;28.30;82.90
27803;DHT22;15182;48.174;11.562;2023-06-22T07:15:20;28.40;82.40
27803;DHT22;15182;48.174;11.562;2023-06-22T07:17:48;28.50;82.00
27803;DHT22;15182;48.174;11.562;2023-06-22T07:20:16;28.50;82.10
27803;DHT22;15182;48.174;11.562;2023-06-22T07:22:45;28.60;81.50
27803;DHT22;15182;48.174;11.562;2023-06-22T07:25:14;28.70;81.90
27803;DHT22;15182;48.174;11.562;2023-06-22T07:27:45;28.80;81.70
27803;DHT22;15182;48.174;11.562;2023-06-22T07:30:14;28.80;81.30
27803;DHT22;15182;48.174;11.562;2023-06-22T07:32:42;28.90;81.60
27803;DHT22;15182;48.174;11.562;2023-06-22T07:35:10;28.90;81.40
27803;DHT22;15182;48.174;11.562;2023-06-22T07:37:37;29.00;81.60
27803;DHT22;15182;48.174;11.562;2023-06-22T07:40:06;29.10;81.20
27803;DHT22;15182;48.174;11.562;2023-06-22T07:42:37;29.10;81.10
27803;DHT22;15182;48.174;11.562;2023-06-22T07:45:06;29.20;81.20
27803;DHT22;15182;48.174;11.562;2023-06-22T07:47:35;29.30;81.10
27803;DHT22;15182;48.174;11.562;2023-06-22T07:50:03;29.40;81.80
27803;DHT22;15182;48.174;11.562;2023-06-22T07:52:32;29.50;81.20
27803;DHT22;15182;48.174;11.562;2023-06-22T07:55:00;29.60;81.20
27803;DHT22;15182;48.174;11.562;2023-06-22T07:57:28;29.70;80.90
27803;DHT22;15182;48.174;11.562;2023-06-22T08:00:02;29.80;80.20
27803;DHT22;15182;48.174;11.562;2023-06-22T08:02:39;29.90;79.80
27803;DHT22;15182;48.174;11.562;2023-06-22T08:05:07;29.90;80.10
27803;DHT22;15182;48.174;11.562;2023-06-22T08:07:35;30.00;80.10
27803;DHT22;15182;48.174;11.562;2023-06-22T08:10:05;30.10;80.00
27803;DHT22;15182;48.174;11.562;2023-06-22T08:12:33;30.20;79.90
27803;DHT22;15182;48.174;11.562;2023-06-22T08:15:03;30.20;79.80
27803;DHT22;15182;48.174;11.562;2023-06-22T08:17:32;30.30;79.60
27803;DHT22;15182;48.174;11.562;2023-06-22T08:20:00;30.30;79.50
27803;DHT22;15182;48.174;11.562;2023-06-22T08:22:31;30.40;80.50
27803;DHT22;15182;48.174;11.562;2023-06-22T08:24:59;30.40;79.80
27803;DHT22;15182;48.174;11.562;2023-06-22T08:27:27;30.50;80.00
27803;DHT22;15182;48.174;11.562;2023-06-22T08:29:57;30.50;80.10
27803;DHT22;15182;48.174;11.562;2023-06-22T08:32:27;30.60;80.40
27803;DHT22;15182;48.174;11.562;2023-06-22T08:34:55;30.70;80.00
27803;DHT22;15182;48.174;11.562;2023-06-22T08:37:23;30.90;79.40
27803;DHT22;15182;48.174;11.562;2023-06-22T08:39:56;30.90;79.20
27803;DHT22;15182;48.174;11.562;2023-06-22T08:42:24;31.00;78.90
27803;DHT22;15182;48.174;11.562;2023-06-22T08:44:52;31.10;78.80
27803;DHT22;15182;48.174;11.562;2023-06-22T08:47:20;31.20;78.10
27803;DHT22;15182;48.174;11.562;2023-06-22T08:49:50;31.20;77.50
27803;DHT22;15182;48.174;11.562;2023-06-22T08:52:19;31.20;77.50
27803;DHT22;15182;48.174;11.562;2023-06-22T08:54:47;31.30;77.60
27803;DHT22;15182;48.174;11.562;2023-06-22T08:57:15;31.30;77.30
27803;DHT22;15182;48.174;11.562;2023-06-22T08:59:43;31.30;77.20
27803;DHT22;15182;48.174;11.562;2023-06-22T09:02:11;31.30;77.30
27803;DHT22;15182;48.174;11.562;2023-06-22T09:04:39;31.30;76.80
27803;DHT22;15182;48.174;11.562;2023-06-22T09:07:09;31.40;78.10
27803;DHT22;15182;48.174;11.562;2023-06-22T09:09:38;31.50;76.80
27803;DHT22;15182;48.174;11.562;2023-06-22T09:12:06;31.50;77.30
27803;DHT22;15182;48.174;11.562;2023-06-22T09:14:35;31.60;76.30
27803;DHT22;15182;48.174;11.562;2023-06-22T09:17:03;31.70;76.40
27803;DHT22;15182;48.174;11.562;2023-06-22T09:19:32;31.70;76.10
27803;DHT22;15182;48.174;11.562;2023-06-22T09:22:00;31.90;75.80
27803;DHT22;15182;48.174;11.562;2023-06-22T09:24:29;31.90;75.80
27803;DHT22;15182;48.174;11.562;2023-06-22T09:26:57;32.00;75.00
27803;DHT22;15182;48.174;11.562;2023-06-22T09:29:25;32.10;75.20
27803;DHT22;15182;48.174;11.562;2023-06-22T09:31:53;32.20;75.10
27803;DHT22;15182;48.174;11.562;2023-06-22T09:34:22;32.30;75.00
27803;DHT22;15182;48.174;11.562;2023-06-22T09:36:49;32.40;74.80
27803;DHT22;15182;48.174;11.562;2023-06-22T09:39:18;32.50;75.10
27803;DHT22;15182;48.174;11.562;2023-06-22T09:41:47;32.60;74.00
27803;DHT22;15182;48.174;11.562;2023-06-22T09:44:15;32.70;73.60
27803;DHT22;15182;48.174;11.562;2023-06-22T09:46:42;32.80;73.70
27803;DHT22;15182;48.174;11.562;2023-06-22T09:49:10;32.90;73.60
27803;DHT22;15182;48.174;11.562;2023-06-22T09:51:38;33.00;73.70
27803;DHT22;15182;48.174;11.562;2023-06-22T09:54:06;33.10;73.80
27803;DHT22;15182;48.174;11.562;2023-06-22T09:56:33;33.20;73.10
27803;DHT22;15182;48.174;11.562;2023-06-22T09:59:02;33.20;73.00
27803;DHT22;15182;48.174;11.562;2023-06-22T10:01:30;33.30;72.70
27803;DHT22;15182;48.174;11.562;2023-06-22T10:03:58;33.40;72.00
27803;DHT22;15182;48.174;11.562;2023-06-22T10:06:26;33.60;71.80
27803;DHT22;15182;48.174;11.562;2023-06-22T10:08:54;33.60;71.80
27803;DHT22;15182;48.174;11.562;2023-06-22T10:11:21;33.70;71.30
27803;DHT22;15182;48.174;11.562;2023-06-22T10:13:53;33.80;71.30
27803;DHT22;15182;48.174;11.562;2023-06-22T10:16:24;33.90;71.10
27803;DHT22;15182;48.174;11.562;2023-06-22T10:18:57;34.00;70.20
27803;DHT22;15182;48.174;11.562;2023-06-22T10:21:25;34.10;70.90
27803;DHT22;15182;48.174;11.562;2023-06-22T10:23:54;34.20;71.00
27803;DHT22;15182;48.174;11.562;2023-06-22T10:26:22;34.40;70.80
27803;DHT22;15182;48.174;11.562;2023-06-22T10:28:50;34.50;70.70
27803;DHT22;15182;48.174;11.562;2023-06-22T10:31:18;34.60;70.80
27803;DHT22;15182;48.174;11.562;2023-06-22T10:33:48;34.80;70.40
27803;DHT22;15182;48.174;11.562;2023-06-22T10:36:16;34.90;69.60
27803;DHT22;15182;48.174;11.562;2023-06-22T10:38:44;35.00;69.40
27803;DHT22;15182;48.174;11.562;2023-06-22T10:41:13;35.20;69.40
27803;DHT22;15182;48.174;11.562;2023-06-22T10:43:41;35.30;69.50
27803;DHT22;15182;48.174;11.562;2023-06-22T10:46:09;35.40;69.10
27803;DHT22;15182;48.174;11.562;2023-06-22T10:48:37;35.50;68.80
27803;DHT22;15182;48.174;11.562;2023-06-22T10:51:06;35.60;68.50
27803;DHT22;15182;48.174;11.562;2023-06-22T10:53:34;35.80;68.20
27803;DHT22;15182;48.174;11.562;2023-06-22T10:56:01;35.90;68.10
27803;DHT22;15182;48.174;11.562;2023-06-22T10:58:29;36.00;68.00
27803;DHT22;15182;48.174;11.562;2023-06-22T11:00:57;36.10;67.80
27803;DHT22;15182;48.174;11.562;2023-06-22T11:03:25;36.20;67.10
27803;DHT22;15182;48.174;11.562;2023-06-22T11:05:53;36.30;67.10
27803;DHT22;15182;48.174;11.562;2023-06-22T11:08:22;36.40;66.90
27803;DHT22;15182;48.174;11.562;2023-06-22T11:10:51;36.40;66.10
27803;DHT22;15182;48.174;11.562;2023-06-22T11:13:19;36.40;65.80
27803;DHT22;15182;48.174;11.562;2023-06-22T11:15:47;36.30;65.90
27803;DHT22;15182;48.174;11.562;2023-06-22T11:18:14;36.20;66.10
27803;DHT22;15182;48.174;11.562;2023-06-22T11:20:42;36.10;66.50
27803;DHT22;15182;48.174;11.562;2023-06-22T11:23:10;36.00;66.10
27803;DHT22;15182;48.174;11.562;2023-06-22T11:25:40;35.90;66.30
27803;DHT22;15182;48.174;11.562;2023-06-22T11:28:08;35.90;67.50
27803;DHT22;15182;48.174;11.562;2023-06-22T11:30:36;36.00;66.80
27803;DHT22;15182;48.174;11.562;2023-06-22T11:33:04;36.00;67.10
27803;DHT22;15182;48.174;11.562;2023-06-22T11:35:32;36.00;66.80
27803;DHT22;15182;48.174;11.562;2023-06-22T11:37:59;36.00;66.60
27803;DHT22;15182;48.174;11.562;2023-06-22T11:40:27;36.20;66.50
27803;DHT22;15182;48.174;11.562;2023-06-22T11:42:56;36.30;66.10
27803;DHT22;15182;48.174;11.562;2023-06-22T11:45:24;36.40;65.80
27803;DHT22;15182;48.174;11.562;2023-06-22T11:47:52;36.50;65.40
27803;DHT22;15182;48.174;11.562;2023-06-22T11:50:20;36.60;65.40
27803;DHT22;15182;48.174;11.562;2023-06-22T11:52:47;36.80;65.30
27803;DHT22;15182;48.174;11.562;2023-06-22T11:55:15;36.90;65.30
27803;DHT22;15182;48.174;11.562;2023-06-22T11:57:53;37.00;64.60
27803;DHT22;15182;48.174;11.562;2023-06-22T12:00:23;37.10;64.10
27803;DHT22;15182;48.174;11.562;2023-06-22T12:02:51;37.20;64.30
27803;DHT22;15182;48.174;11.562;2023-06-22T12:05:19;37.30;64.40
27803;DHT22;15182;48.174;11.562;2023-06-22T12:07:48;37.40;63.80
27803;DHT22;15182;48.174;11.562;2023-06-22T12:10:16;37.50;63.80
27803;DHT22;15182;48.174;11.562;2023-06-22T12:12:45;37.50;63.40
27803;DHT22;15182;48.174;11.562;2023-06-22T12:15:12;37.50;63.00
27803;DHT22;15182;48.174;11.562;2023-06-22T12:17:42;37.50;63.00
27803;DHT22;15182;48.174;11.562;2023-06-22T12:20:10;37.50;63.10
27803;DHT22;15182;48.174;11.562;2023-06-22T12:22:38;37.60;63.30
27803;DHT22;15182;48.174;11.562;2023-06-22T12:25:06;37.70;63.30
27803;DHT22;15182;48.174;11.562;2023-06-22T12:27:35;37.80;63.00
27803;DHT22;15182;48.174;11.562;2023-06-22T12:30:04;37.80;63.10
27803;DHT22;15182;48.174;11.562;2023-06-22T12:32:32;37.90;63.00
27803;DHT22;15182;48.174;11.562;2023-06-22T12:35:01;37.90;62.20
27803;DHT22;15182;48.174;11.562;2023-06-22T12:37:29;38.00;62.20
27803;DHT22;15182;48.174;11.562;2023-06-22T12:39:58;37.90;62.40
27803;DHT22;15182;48.174;11.562;2023-06-22T12:42:26;37.90;62.30
27803;DHT22;15182;48.174;11.562;2023-06-22T12:44:54;37.80;62.40
27803;DHT22;15182;48.174;11.562;2023-06-22T12:47:22;37.80;62.40
27803;DHT22;15182;48.174;11.562;2023-06-22T12:49:49;37.80;62.60
27803;DHT22;15182;48.174;11.562;2023-06-22T12:52:19;37.70;62.30
27803;DHT22;15182;48.174;11.562;2023-06-22T12:54:46;37.60;62.40
27803;DHT22;15182;48.174;11.562;2023-06-22T12:57:15;37.60;63.00
27803;DHT22;15182;48.174;11.562;2023-06-22T12:59:43;37.50;63.20
27803;DHT22;15182;48.174;11.562;2023-06-22T13:02:11;37.50;64.50
27803;DHT22;15182;48.174;11.562;2023-06-22T13:04:39;37.40;63.40
27803;DHT22;15182;48.174;11.562;2023-06-22T13:07:07;37.40;62.90
27803;DHT22;15182;48.174;11.562;2023-06-22T13:09:37;37.30;62.90
27803;DHT22;15182;48.174;11.562;2023-06-22T13:12:06;37.20;64.00
27803;DHT22;15182;48.174;11.562;2023-06-22T13:14:34;37.20;63.60
27803;DHT22;15182;48.174;11.562;2023-06-22T13:17:02;37.20;63.30
27803;DHT22;15182;48.174;11.562;2023-06-22T13:19:30;37.20;63.20
27803;DHT22;15182;48.174;11.562;2023-06-22T13:21:59;37.30;63.60
27803;DHT22;15182;48.174;11.562;2023-06-22T13:24:28;37.40;63.80
27803;DHT22;15182;48.174;11.562;2023-06-22T13:26:57;37.50;63.40
27803;DHT22;15182;48.174;11.562;2023-06-22T13:29:25;37.50;63.50
27803;DHT22;15182;48.174;11.562;2023-06-22T13:31:53;37.60;62.90
27803;DHT22;15182;48.174;11.562;2023-06-22T13:34:23;37.70;63.00
27803;DHT22;15182;48.174;11.562;2023-06-22T13:36:51;37.80;62.30
27803;DHT22;15182;48.174;11.562;2023-06-22T13:39:18;37.80;62.40
27803;DHT22;15182;48.174;11.562;2023-06-22T13:41:46;37.90;62.20
27803;DHT22;15182;48.174;11.562;2023-06-22T13:44:15;38.00;62.70
27803;DHT22;15182;48.174;11.562;2023-06-22T13:46:43;38.00;61.60
27803;DHT22;15182;48.174;11.562;2023-06-22T13:49:11;38.10;62.20
27803;DHT22;15182;48.174;11.562;2023-06-22T13:51:39;38.10;62.50
27803;DHT22;15182;48.174;11.562;2023-06-22T13:54:07;38.20;61.30
27803;DHT22;15182;48.174;11.562;2023-06-22T13:56:34;38.20;61.90
27803;DHT22;15182;48.174;11.562;2023-06-22T13:59:02;38.20;62.30
27803;DHT22;15182;48.174;11.562;2023-06-22T14:01:31;38.20;61.60
27803;DHT22;15182;48.174;11.562;2023-06-22T14:03:59;38.30;61.60
27803;DHT22;15182;48.174;11.562;2023-06-22T14:06:28;38.30;61.20
27803;DHT22;15182;48.174;11.562;2023-06-22T14:08:56;38.30;61.50
27803;DHT22;15182;48.174;11.562;2023-06-22T14:11:24;38.30;61.10
27803;DHT22;15182;48.174;11.562;2023-06-22T14:13:52;38.30;60.80
27803;DHT22;15182;48.174;11.562;2023-06-22T14:16:20;38.30;61.20
27803;DHT22;15182;48.174;11.562;2023-06-22T14:18:49;38.30;60.40
27803;DHT22;15182;48.174;11.562;2023-06-22T14:21:17;38.30;60.20
27803;DHT22;15182;48.174;11.562;2023-06-22T14:23:45;38.30;60.20
27803;DHT22;15182;48.174;11.562;2023-06-22T14:26:15;38.30;60.10
27803;DHT22;15182;48.174;11.562;2023-06-22T14:28:45;38.30;60.00
27803;DHT22;15182;48.174;11.562;2023-06-22T14:31:14;38.30;59.50
27803;DHT22;15182;48.174;11.562;2023-06-22T14:33:46;38.20;59.50
27803;DHT22;15182;48.174;11.562;2023-06-22T14:36:16;38.20;59.30
27803;DHT22;15182;48.174;11.562;2023-06-22T14:38:44;38.20;60.00
27803;DHT22;15182;48.174;11.562;2023-06-22T14:41:13;38.10;59.80
27803;DHT22;15182;48.174;11.562;2023-06-22T14:43:46;38.10;59.50
27803;DHT22;15182;48.174;11.562;2023-06-22T14:46:15;38.10;58.70
27803;DHT22;15182;48.174;11.562;2023-06-22T14:48:43;38.10;59.00
27803;DHT22;15182;48.174;11.562;2023-06-22T14:51:12;38.00;58.70
27803;DHT22;15182;48.174;11.562;2023-06-22T14:53:41;38.00;58.60
27803;DHT22;15182;48.174;11.562;2023-06-22T14:56:10;37.90;58.40
27803;DHT22;15182;48.174;11.562;2023-06-22T14:58:40;37.90;58.60
27803;DHT22;15182;48.174;11.562;2023-06-22T15:01:11;37.80;58.10
27803;DHT22;15182;48.174;11.562;2023-06-22T15:03:39;37.80;57.70
27803;DHT22;15182;48.174;11.562;2023-06-22T15:06:08;37.70;57.90
27803;DHT22;15182;48.174;11.562;2023-06-22T15:08:37;37.60;57.90
27803;DHT22;15182;48.174;11.562;2023-06-22T15:11:07;37.60;58.40
27803;DHT22;15182;48.174;11.562;2023-06-22T15:13:38;37.50;57.70
27803;DHT22;15182;48.174;11.562;2023-06-22T15:16:06;37.50;57.70
27803;DHT22;15182;48.174;11.562;2023-06-22T15:18:35;37.50;57.50
27803;DHT22;15182;48.174;11.562;2023-06-22T15:21:04;37.40;57.30
27803;DHT22;15182;48.174;11.562;2023-06-22T15:23:32;37.40;57.40
27803;DHT22;15182;48.174;11.562;2023-06-22T15:26:02;37.40;57.40